sensor_id;sensor_type;location;lat;lon;timestamp;pressure;altitude;pressure_sealevel;temperature;humidity
50166;BME280;36071;48.140;11.516;2023-09-07T00:06:59;95870.0;;;20.2;60.0
50166;BME280;36071;48.140;11.516;2023-09-07T00:12:00;95870.0;;;19.9;61.5
50166;BME280;36071;48.140;11.516;2023-09-07T00:17:00;95870.0;;;19.9;61.2
50166;BME280;36071;48.140;11.516;2023-09-07T00:21:59;95860.0;;;19.9;61.3
50166;BME280;36071;48.140;11.516;2023-09-07T00:27:00;95850.0;;;19.8;61.6
50166;BME280;36071;48.140;11.516;2023-09-07T00:32:00;95860.0;;;19.9;61.3
50166;BME280;36071;48.140;11.516;2023-09-07T00:37:00;95850.0;;;19.8;61.5
50166;BME280;36071;48.140;11.516;2023-09-07T00:42:01;95850.0;;;19.8;61.6
50166;BME280;36071;48.140;11.516;2023-09-07T00:47:00;95850.0;;;19.8;61.4
50166;BME280;36071;48.140;11.516;2023-09-07T00:51:59;95850.0;;;19.7;61.4
50166;BME280;36071;48.140;11.516;2023-09-07T00:56:59;95860.0;;;19.7;61.7
50166;BME280;36071;48.140;11.516;2023-09-07T01:01:59;95850.0;;;19.6;61.7
50166;BME280;36071;48.140;11.516;2023-09-07T01:07:01;95850.0;;;19.6;61.8
50166;BME280;36071;48.140;11.516;2023-09-07T01:11:59;95850.0;;;19.6;61.7
50166;BME280;36071;48.140;11.516;2023-09-07T01:16:59;95850.0;;;19.6;62.0
50166;BME280;36071;48.140;11.516;2023-09-07T01:22:01;95850.0;;;19.5;62.0
50166;BME280;36071;48.140;11.516;2023-09-07T01:27:00;95840.0;;;19.5;62.1
50166;BME280;36071;48.140;11.516;2023-09-07T01:37:04;95840.0;;;19.4;62.7
50166;BME280;36071;48.140;11.516;2023-09-07T01:41:59;95840.0;;;19.4;62.9
50166;BME280;36071;48.140;11.516;2023-09-07T01:47:01;95840.0;;;19.3;63.2
50166;BME280;36071;48.140;11.516;2023-09-07T01:51:59;95840.0;;;19.2;63.4
50166;BME280;36071;48.140;11.516;2023-09-07T01:56:59;95850.0;;;19.2;63.1
50166;BME280;36071;48.140;11.516;2023-09-07T02:02:01;95830.0;;;19.1;63.7
50166;BME280;36071;48.140;11.516;2023-09-07T02:06:59;95810.0;;;18.9;63.8
50166;BME280;36071;48.140;11.516;2023-09-07T02:11:59;95810.0;;;18.7;64.4
50166;BME280;36071;48.140;11.516;2023-09-07T02:17:00;95830.0;;;18.8;64.5
50166;BME280;36071;48.140;11.516;2023-09-07T02:21:59;95830.0;;;18.7;64.9
50166;BME280;36071;48.140;11.516;2023-09-07T02:26:59;95840.0;;;18.6;64.9
50166;BME280;36071;48.140;11.516;2023-09-07T02:31:59;95850.0;;;18.5;65.4
50166;BME280;36071;48.140;11.516;2023-09-07T02:36:59;95850.0;;;18.4;66.0
50166;BME280;36071;48.140;11.516;2023-09-07T02:41:59;95850.0;;;18.3;65.7
50166;BME280;36071;48.140;11.516;2023-09-07T02:46:59;95850.0;;;18.1;66.2
50166;BME280;36071;48.140;11.516;2023-09-07T02:52:00;95840.0;;;18.1;66.4
50166;BME280;36071;48.140;11.516;2023-09-07T02:57:01;95840.0;;;18.0;66.5
50166;BME280;36071;48.140;11.516;2023-09-07T03:01:59;95840.0;;;18.0;66.6
50166;BME280;36071;48.140;11.516;2023-09-07T03:07:00;95840.0;;;18.0;66.7
50166;BME280;36071;48.140;11.516;2023-09-07T03:11:59;95840.0;;;18.0;66.6
50166;BME280;36071;48.140;11.516;2023-09-07T03:17:01;95850.0;;;17.9;66.6
50166;BME280;36071;48.140;11.516;2023-09-07T03:22:00;95850.0;;;17.9;66.9
50166;BME280;36071;48.140;11.516;2023-09-07T03:27:00;95850.0;;;17.9;67.0
50166;BME280;36071;48.140;11.516;2023-09-07T03:31:59;95850.0;;;17.9;66.8
50166;BME280;36071;48.140;11.516;2023-09-07T03:36:59;95850.0;;;17.8;66.8
50166;BME280;36071;48.140;11.516;2023-09-07T03:42:01;95850.0;;;17.8;66.9
50166;BME280;36071;48.140;11.516;2023-09-07T03:47:01;95850.0;;;17.7;67.2
50166;BME280;36071;48.140;11.516;2023-09-07T03:51:59;95860.0;;;17.6;67.5
50166;BME280;36071;48.140;11.516;2023-09-07T04:12:01;95860.0;;;17.4;67.8
50166;BME280;36071;48.140;11.516;2023-09-07T04:16:59;95870.0;;;17.4;67.8
50166;BME280;36071;48.140;11.516;2023-09-07T04:21:59;95870.0;;;17.3;67.5
50166;BME280;36071;48.140;11.516;2023-09-07T04:27:01;95860.0;;;17.3;67.8
50166;BME280;36071;48.140;11.516;2023-09-07T04:32:04;95860.0;;;17.2;67.6
50166;BME280;36071;48.140;11.516;2023-09-07T04:37:00;95860.0;;;17.1;67.8
50166;BME280;36071;48.140;11.516;2023-09-07T04:42:01;95860.0;;;17.1;68.3
50166;BME280;36071;48.140;11.516;2023-09-07T04:46:59;95870.0;;;17.1;68.3
50166;BME280;36071;48.140;11.516;2023-09-07T04:51:59;95870.0;;;17.1;68.4
50166;BME280;36071;48.140;11.516;2023-09-07T04:56:59;95880.0;;;17.1;68.4
50166;BME280;36071;48.140;11.516;2023-09-07T05:01:59;95870.0;;;17.0;68.1
50166;BME280;36071;48.140;11.516;2023-09-07T05:06:59;95880.0;;;17.0;68.1
50166;BME280;36071;48.140;11.516;2023-09-07T05:11:59;95840.0;;;16.8;68.5
50166;BME280;36071;48.140;11.516;2023-09-07T05:16:59;95880.0;;;17.0;69.0
50166;BME280;36071;48.140;11.516;2023-09-07T05:22:01;95880.0;;;17.0;69.3
50166;BME280;36071;48.140;11.516;2023-09-07T05:27:01;95880.0;;;17.0;69.6
50166;BME280;36071;48.140;11.516;2023-09-07T05:32:00;95890.0;;;17.0;70.1
50166;BME280;36071;48.140;11.516;2023-09-07T05:36:59;95890.0;;;17.0;70.7
50166;BME280;36071;48.140;11.516;2023-09-07T05:41:59;95890.0;;;17.0;71.0
50166;BME280;36071;48.140;11.516;2023-09-07T05:47:01;95890.0;;;16.9;71.5
50166;BME280;36071;48.140;11.516;2023-09-07T05:52:01;95900.0;;;16.9;72.5
50166;BME280;36071;48.140;11.516;2023-09-07T05:56:59;95910.0;;;16.9;73.4
50166;BME280;36071;48.140;11.516;2023-09-07T06:02:00;95900.0;;;16.9;73.2
50166;BME280;36071;48.140;11.516;2023-09-07T06:06:59;95900.0;;;17.0;73.5
50166;BME280;36071;48.140;11.516;2023-09-07T06:11:59;95880.0;;;16.9;73.5
50166;BME280;36071;48.140;11.516;2023-09-07T06:17:01;95910.0;;;17.2;73.3
50166;BME280;36071;48.140;11.516;2023-09-07T06:22:01;95910.0;;;17.3;73.7
50166;BME280;36071;48.140;11.516;2023-09-07T06:27:01;95910.0;;;17.3;73.2
50166;BME280;36071;48.140;11.516;2023-09-07T06:32:01;95900.0;;;17.3;73.8
50166;BME280;36071;48.140;11.516;2023-09-07T06:37:01;95910.0;;;17.5;72.8
50166;BME280;36071;48.140;11.516;2023-09-07T06:41:59;95900.0;;;17.6;72.2
50166;BME280;36071;48.140;11.516;2023-09-07T06:46:59;95910.0;;;17.8;71.8
50166;BME280;36071;48.140;11.516;2023-09-07T06:52:01;95900.0;;;18.0;71.3
50166;BME280;36071;48.140;11.516;2023-09-07T06:57:08;95890.0;;;18.2;69.9
50166;BME280;36071;48.140;11.516;2023-09-07T07:02:04;95900.0;;;18.5;69.3
50166;BME280;36071;48.140;11.516;2023-09-07T07:07:01;95910.0;;;18.6;68.4
50166;BME280;36071;48.140;11.516;2023-09-07T07:12:02;95900.0;;;19.1;66.9
50166;BME280;36071;48.140;11.516;2023-09-07T07:17:01;95910.0;;;19.5;64.7
50166;BME280;36071;48.140;11.516;2023-09-07T07:22:01;95920.0;;;19.8;63.3
50166;BME280;36071;48.140;11.516;2023-09-07T07:27:00;95920.0;;;20.2;62.1
50166;BME280;36071;48.140;11.516;2023-09-07T07:31:59;95920.0;;;20.6;60.5
50166;BME280;36071;48.140;11.516;2023-09-07T07:37:01;95920.0;;;21.1;59.2
50166;BME280;36071;48.140;11.516;2023-09-07T07:42:01;95910.0;;;21.5;57.3
50166;BME280;36071;48.140;11.516;2023-09-07T07:47:01;95920.0;;;21.8;56.5
50166;BME280;36071;48.140;11.516;2023-09-07T07:52:02;95920.0;;;21.9;56.2
50166;BME280;36071;48.140;11.516;2023-09-07T07:56:59;95920.0;;;22.0;55.6
50166;BME280;36071;48.140;11.516;2023-09-07T08:02:01;95920.0;;;22.4;54.4
50166;BME280;36071;48.140;11.516;2023-09-07T08:06:59;95910.0;;;22.8;54.1
50166;BME280;36071;48.140;11.516;2023-09-07T08:12:01;95910.0;;;23.2;52.7
50166;BME280;36071;48.140;11.516;2023-09-07T08:17:01;95910.0;;;23.6;52.5
50166;BME280;36071;48.140;11.516;2023-09-07T08:21:59;95910.0;;;24.0;51.3
50166;BME280;36071;48.140;11.516;2023-09-07T08:26:59;95910.0;;;24.3;50.4
50166;BME280;36071;48.140;11.516;2023-09-07T08:32:01;95910.0;;;24.5;49.3
50166;BME280;36071;48.140;11.516;2023-09-07T08:36:59;95910.0;;;24.7;49.0
50166;BME280;36071;48.140;11.516;2023-09-07T08:41:59;95910.0;;;25.0;48.6
50166;BME280;36071;48.140;11.516;2023-09-07T08:46:59;95900.0;;;25.4;48.1
50166;BME280;36071;48.140;11.516;2023-09-07T08:52:01;95900.0;;;25.5;46.7
50166;BME280;36071;48.140;11.516;2023-09-07T08:57:01;95900.0;;;25.8;46.5
50166;BME280;36071;48.140;11.516;2023-09-07T09:01:59;95900.0;;;25.8;45.9
50166;BME280;36071;48.140;11.516;2023-09-07T09:06:59;95900.0;;;26.2;45.3
50166;BME280;36071;48.140;11.516;2023-09-07T09:12:06;95890.0;;;26.4;45.4
50166;BME280;36071;48.140;11.516;2023-09-07T09:21:59;95900.0;;;26.9;44.6
50166;BME280;36071;48.140;11.516;2023-09-07T09:27:01;95890.0;;;27.2;44.1
50166;BME280;36071;48.140;11.516;2023-09-07T09:32:00;95880.0;;;27.4;43.5
50166;BME280;36071;48.140;11.516;2023-09-07T09:37:01;95870.0;;;27.8;44.1
50166;BME280;36071;48.140;11.516;2023-09-07T09:41:59;95870.0;;;28.0;42.5
50166;BME280;36071;48.140;11.516;2023-09-07T09:46:59;95870.0;;;28.3;43.4
50166;BME280;36071;48.140;11.516;2023-09-07T09:51:59;95880.0;;;28.6;42.1
50166;BME280;36071;48.140;11.516;2023-09-07T09:57:01;95870.0;;;28.9;41.8
50166;BME280;36071;48.140;11.516;2023-09-07T10:02:00;95880.0;;;29.0;41.5
50166;BME280;36071;48.140;11.516;2023-09-07T10:06:59;95870.0;;;29.2;41.6
50166;BME280;36071;48.140;11.516;2023-09-07T10:12:01;95870.0;;;29.5;41.6
50166;BME280;36071;48.140;11.516;2023-09-07T10:16:59;95870.0;;;29.9;39.9
50166;BME280;36071;48.140;11.516;2023-09-07T10:22:00;95870.0;;;30.1;39.4
50166;BME280;36071;48.140;11.516;2023-09-07T10:27:00;95860.0;;;30.3;39.6
50166;BME280;36071;48.140;11.516;2023-09-07T10:32:04;95870.0;;;30.4;39.3
50166;BME280;36071;48.140;11.516;2023-09-07T10:36:59;95860.0;;;30.7;39.2
50166;BME280;36071;48.140;11.516;2023-09-07T10:42:01;95850.0;;;30.8;38.9
50166;BME280;36071;48.140;11.516;2023-09-07T10:47:00;95850.0;;;31.0;37.7
50166;BME280;36071;48.140;11.516;2023-09-07T10:51:59;95860.0;;;31.2;38.1
50166;BME280;36071;48.140;11.516;2023-09-07T10:57:07;95850.0;;;31.5;37.5
50166;BME280;36071;48.140;11.516;2023-09-07T11:02:02;95840.0;;;31.8;37.2
50166;BME280;36071;48.140;11.516;2023-09-07T11:06:59;95850.0;;;31.9;36.5
50166;BME280;36071;48.140;11.516;2023-09-07T11:12:03;95850.0;;;32.3;36.2
50166;BME280;36071;48.140;11.516;2023-09-07T11:17:01;95840.0;;;32.3;36.9
50166;BME280;36071;48.140;11.516;2023-09-07T11:21:59;95850.0;;;32.4;35.2
50166;BME280;36071;48.140;11.516;2023-09-07T11:27:00;95840.0;;;32.5;35.6
50166;BME280;36071;48.140;11.516;2023-09-07T11:32:07;95840.0;;;32.6;36.0
50166;BME280;36071;48.140;11.516;2023-09-07T11:37:01;95840.0;;;32.5;35.0
50166;BME280;36071;48.140;11.516;2023-09-07T11:41:59;95840.0;;;32.5;35.9
50166;BME280;36071;48.140;11.516;2023-09-07T11:46:59;95840.0;;;32.7;35.5
50166;BME280;36071;48.140;11.516;2023-09-07T11:52:00;95830.0;;;32.5;35.1
50166;BME280;36071;48.140;11.516;2023-09-07T11:57:01;95830.0;;;32.8;35.1
50166;BME280;36071;48.140;11.516;2023-09-07T12:01:59;95840.0;;;32.9;35.1
50166;BME280;36071;48.140;11.516;2023-09-07T12:06:59;95840.0;;;33.0;35.1
50166;BME280;36071;48.140;11.516;2023-09-07T12:11:59;95830.0;;;33.2;35.2
50166;BME280;36071;48.140;11.516;2023-09-07T12:17:01;95830.0;;;33.3;34.1
50166;BME280;36071;48.140;11.516;2023-09-07T12:22:00;95820.0;;;33.5;33.7
50166;BME280;36071;48.140;11.516;2023-09-07T12:26:59;95820.0;;;33.5;34.9
50166;BME280;36071;48.140;11.516;2023-09-07T12:32:01;95810.0;;;33.7;33.8
50166;BME280;36071;48.140;11.516;2023-09-07T12:37:01;95800.0;;;33.7;33.7
50166;BME280;36071;48.140;11.516;2023-09-07T12:41:59;95810.0;;;33.7;34.2
50166;BME280;36071;48.140;11.516;2023-09-07T12:47:01;95790.0;;;33.6;33.6
50166;BME280;36071;48.140;11.516;2023-09-07T12:52:00;95790.0;;;33.6;33.5
50166;BME280;36071;48.140;11.516;2023-09-07T12:56:59;95790.0;;;33.6;33.4
50166;BME280;36071;48.140;11.516;2023-09-07T13:01:59;95790.0;;;33.7;33.4
50166;BME280;36071;48.140;11.516;2023-09-07T13:07:00;95790.0;;;33.5;33.9
50166;BME280;36071;48.140;11.516;2023-09-07T13:12:01;95800.0;;;33.4;33.8
50166;BME280;36071;48.140;11.516;2023-09-07T13:16:59;95800.0;;;33.5;33.0
50166;BME280;36071;48.140;11.516;2023-09-07T13:22:00;95810.0;;;33.4;32.6
50166;BME280;36071;48.140;11.516;2023-09-07T13:27:01;95790.0;;;33.2;33.5
50166;BME280;36071;48.140;11.516;2023-09-07T13:32:01;95790.0;;;33.2;32.2
50166;BME280;36071;48.140;11.516;2023-09-07T13:37:00;95790.0;;;33.3;32.6
50166;BME280;36071;48.140;11.516;2023-09-07T13:42:04;95790.0;;;33.2;31.7
50166;BME280;36071;48.140;11.516;2023-09-07T13:46:59;95780.0;;;33.3;31.9
50166;BME280;36071;48.140;11.516;2023-09-07T13:52:00;95780.0;;;33.2;31.5
50166;BME280;36071;48.140;11.516;2023-09-07T13:57:02;95780.0;;;33.0;31.1
50166;BME280;36071;48.140;11.516;2023-09-07T14:02:01;95770.0;;;32.8;31.4
50166;BME280;36071;48.140;11.516;2023-09-07T14:07:00;95780.0;;;32.9;31.4
50166;BME280;36071;48.140;11.516;2023-09-07T14:11:59;95770.0;;;32.9;31.4
50166;BME280;36071;48.140;11.516;2023-09-07T14:17:00;95770.0;;;32.7;30.8
50166;BME280;36071;48.140;11.516;2023-09-07T14:22:01;95780.0;;;32.5;31.0
50166;BME280;36071;48.140;11.516;2023-09-07T14:27:00;95770.0;;;32.4;31.5
50166;BME280;36071;48.140;11.516;2023-09-07T14:32:01;95780.0;;;32.3;31.1
50166;BME280;36071;48.140;11.516;2023-09-07T14:37:01;95780.0;;;32.2;31.2
50166;BME280;36071;48.140;11.516;2023-09-07T14:42:01;95780.0;;;32.1;31.1
50166;BME280;36071;48.140;11.516;2023-09-07T14:47:02;95780.0;;;32.0;31.1
50166;BME280;36071;48.140;11.516;2023-09-07T14:52:02;95780.0;;;31.9;31.4
50166;BME280;36071;48.140;11.516;2023-09-07T14:57:00;95780.0;;;31.9;31.6
50166;BME280;36071;48.140;11.516;2023-09-07T15:02:01;95780.0;;;31.9;31.7
50166;BME280;36071;48.140;11.516;2023-09-07T15:07:01;95780.0;;;31.8;31.6
50166;BME280;36071;48.140;11.516;2023-09-07T15:12:01;95780.0;;;31.7;31.2
50166;BME280;36071;48.140;11.516;2023-09-07T15:17:01;95780.0;;;31.5;32.1
50166;BME280;36071;48.140;11.516;2023-09-07T15:22:01;95770.0;;;31.3;31.6
50166;BME280;36071;48.140;11.516;2023-09-07T15:27:06;95770.0;;;31.2;32.1
50166;BME280;36071;48.140;11.516;2023-09-07T15:32:01;95770.0;;;30.9;32.4
50166;BME280;36071;48.140;11.516;2023-09-07T15:37:02;95780.0;;;30.6;32.3
50166;BME280;36071;48.140;11.516;2023-09-07T15:42:01;95770.0;;;30.5;32.4
50166;BME280;36071;48.140;11.516;2023-09-07T15:47:02;95770.0;;;30.3;32.7
50166;BME280;36071;48.140;11.516;2023-09-07T15:52:01;95780.0;;;30.2;32.0
50166;BME280;36071;48.140;11.516;2023-09-07T15:57:01;95780.0;;;30.0;31.5
50166;BME280;36071;48.140;11.516;2023-09-07T16:02:02;95770.0;;;29.7;32.1
50166;BME280;36071;48.140;11.516;2023-09-07T16:07:02;95780.0;;;29.7;32.3
50166;BME280;36071;48.140;11.516;2023-09-07T16:12:02;95780.0;;;29.6;32.3
50166;BME280;36071;48.140;11.516;2023-09-07T16:17:01;95780.0;;;29.3;32.8
50166;BME280;36071;48.140;11.516;2023-09-07T16:22:02;95770.0;;;29.1;33.1
50166;BME280;36071;48.140;11.516;2023-09-07T16:27:01;95780.0;;;29.1;33.2
50166;BME280;36071;48.140;11.516;2023-09-07T16:32:02;95780.0;;;29.0;33.3
50166;BME280;36071;48.140;11.516;2023-09-07T16:37:01;95780.0;;;28.9;33.3
50166;BME280;36071;48.140;11.516;2023-09-07T16:42:01;95780.0;;;28.8;33.5
50166;BME280;36071;48.140;11.516;2023-09-07T16:47:01;95780.0;;;28.6;33.5
50166;BME280;36071;48.140;11.516;2023-09-07T16:52:02;95790.0;;;28.5;34.0
50166;BME280;36071;48.140;11.516;2023-09-07T16:57:01;95780.0;;;28.3;35.2
50166;BME280;36071;48.140;11.516;2023-09-07T17:02:01;95790.0;;;28.1;35.6
50166;BME280;36071;48.140;11.516;2023-09-07T17:07:01;95790.0;;;28.0;36.2
50166;BME280;36071;48.140;11.516;2023-09-07T17:12:01;95790.0;;;28.0;35.9
50166;BME280;36071;48.140;11.516;2023-09-07T17:17:01;95790.0;;;27.9;36.5
50166;BME280;36071;48.140;11.516;2023-09-07T17:22:01;95800.0;;;27.7;36.5
50166;BME280;36071;48.140;11.516;2023-09-07T17:27:01;95790.0;;;27.8;37.3
50166;BME280;36071;48.140;11.516;2023-09-07T17:32:01;95800.0;;;27.7;37.3
50166;BME280;36071;48.140;11.516;2023-09-07T17:37:01;95790.0;;;27.6;37.5
50166;BME280;36071;48.140;11.516;2023-09-07T17:42:01;95790.0;;;27.5;37.8
50166;BME280;36071;48.140;11.516;2023-09-07T17:47:01;95790.0;;;27.4;37.9
50166;BME280;36071;48.140;11.516;2023-09-07T17:52:01;95800.0;;;27.3;38.2
50166;BME280;36071;48.140;11.516;2023-09-07T17:57:01;95790.0;;;27.2;38.2
50166;BME280;36071;48.140;11.516;2023-09-07T18:02:01;95800.0;;;27.1;38.6
50166;BME280;36071;48.140;11.516;2023-09-07T18:07:01;95810.0;;;27.0;39.0
50166;BME280;36071;48.140;11.516;2023-09-07T18:12:01;95810.0;;;26.9;39.1
50166;BME280;36071;48.140;11.516;2023-09-07T18:17:01;95820.0;;;26.8;39.3
50166;BME280;36071;48.140;11.516;2023-09-07T18:22:01;95810.0;;;26.7;39.5
50166;BME280;36071;48.140;11.516;2023-09-07T18:27:01;95820.0;;;26.7;39.8
50166;BME280;36071;48.140;11.516;2023-09-07T18:32:01;95810.0;;;26.6;40.1
50166;BME280;36071;48.140;11.516;2023-09-07T18:37:01;95810.0;;;26.4;40.5
50166;BME280;36071;48.140;11.516;2023-09-07T18:42:01;95810.0;;;26.3;41.0
50166;BME280;36071;48.140;11.516;2023-09-07T18:47:01;95810.0;;;26.1;41.0
50166;BME280;36071;48.140;11.516;2023-09-07T18:52:01;95810.0;;;26.0;40.9
50166;BME280;36071;48.140;11.516;2023-09-07T18:57:01;95810.0;;;25.9;41.2
50166;BME280;36071;48.140;11.516;2023-09-07T19:02:01;95810.0;;;25.8;41.4
50166;BME280;36071;48.140;11.516;2023-09-07T19:07:01;95810.0;;;25.7;42.0
50166;BME280;36071;48.140;11.516;2023-09-07T19:12:01;95810.0;;;25.6;42.3
50166;BME280;36071;48.140;11.516;2023-09-07T19:17:02;95810.0;;;25.4;42.8
50166;BME280;36071;48.140;11.516;2023-09-07T19:22:02;95790.0;;;25.2;42.8
50166;BME280;36071;48.140;11.516;2023-09-07T19:27:01;95800.0;;;25.1;42.7
50166;BME280;36071;48.140;11.516;2023-09-07T19:32:01;95800.0;;;25.0;42.7
50166;BME280;36071;48.140;11.516;2023-09-07T19:37:01;95800.0;;;24.9;42.8
50166;BME280;36071;48.140;11.516;2023-09-07T19:42:01;95800.0;;;24.8;42.8
50166;BME280;36071;48.140;11.516;2023-09-07T19:47:02;95800.0;;;24.7;43.0
50166;BME280;36071;48.140;11.516;2023-09-07T19:52:02;95810.0;;;24.7;43.0
50166;BME280;36071;48.140;11.516;2023-09-07T19:57:02;95810.0;;;24.6;43.5
50166;BME280;36071;48.140;11.516;2023-09-07T20:02:01;95810.0;;;24.6;43.7
50166;BME280;36071;48.140;11.516;2023-09-07T20:07:01;95810.0;;;24.4;44.0
50166;BME280;36071;48.140;11.516;2023-09-07T20:12:01;95810.0;;;24.3;44.2
50166;BME280;36071;48.140;11.516;2023-09-07T20:17:02;95820.0;;;24.2;44.2
50166;BME280;36071;48.140;11.516;2023-09-07T20:22:01;95820.0;;;24.1;44.3
50166;BME280;36071;48.140;11.516;2023-09-07T20:27:03;95820.0;;;24.1;44.4
50166;BME280;36071;48.140;11.516;2023-09-07T20:32:01;95820.0;;;24.0;44.4
50166;BME280;36071;48.140;11.516;2023-09-07T20:37:01;95820.0;;;23.9;44.6
50166;BME280;36071;48.140;11.516;2023-09-07T20:42:01;95810.0;;;23.8;44.8
50166;BME280;36071;48.140;11.516;2023-09-07T20:47:01;95810.0;;;23.8;45.1
50166;BME280;36071;48.140;11.516;2023-09-07T20:52:01;95810.0;;;23.7;45.2
50166;BME280;36071;48.140;11.516;2023-09-07T20:57:01;95810.0;;;23.6;45.7
50166;BME280;36071;48.140;11.516;2023-09-07T21:02:01;95810.0;;;23.5;45.8
50166;BME280;36071;48.140;11.516;2023-09-07T21:07:01;95810.0;;;23.4;46.1
50166;BME280;36071;48.140;11.516;2023-09-07T21:12:01;95810.0;;;23.4;46.3
50166;BME280;36071;48.140;11.516;2023-09-07T21:17:01;95810.0;;;23.3;46.8
50166;BME280;36071;48.140;11.516;2023-09-07T21:22:01;95810.0;;;23.2;47.1
50166;BME280;36071;48.140;11.516;2023-09-07T21:27:01;95800.0;;;23.1;47.7
50166;BME280;36071;48.140;11.516;2023-09-07T21:32:02;95810.0;;;23.0;47.7
50166;BME280;36071;48.140;11.516;2023-09-07T21:37:01;95810.0;;;22.9;47.6
50166;BME280;36071;48.140;11.516;2023-09-07T21:42:01;95800.0;;;22.8;47.5
50166;BME280;36071;48.140;11.516;2023-09-07T21:47:01;95810.0;;;22.7;47.7
50166;BME280;36071;48.140;11.516;2023-09-07T21:52:01;95810.0;;;22.6;47.8
50166;BME280;36071;48.140;11.516;2023-09-07T21:57:01;95810.0;;;22.5;48.3
50166;BME280;36071;48.140;11.516;2023-09-07T22:02:01;95810.0;;;22.5;48.7
50166;BME280;36071;48.140;11.516;2023-09-07T22:07:01;95810.0;;;22.4;48.9
50166;BME280;36071;48.140;11.516;2023-09-07T22:17:02;95810.0;;;22.3;48.9
50166;BME280;36071;48.140;11.516;2023-09-07T22:22:02;95810.0;;;22.2;49.3
50166;BME280;36071;48.140;11.516;2023-09-07T22:27:02;95810.0;;;22.1;49.5
50166;BME280;36071;48.140;11.516;2023-09-07T22:32:02;95810.0;;;22.1;49.8
50166;BME280;36071;48.140;11.516;2023-09-07T22:37:02;95800.0;;;22.0;50.2
50166;BME280;36071;48.140;11.516;2023-09-07T22:42:02;95800.0;;;21.9;50.4
50166;BME280;36071;48.140;11.516;2023-09-07T22:47:03;95800.0;;;21.7;51.1
50166;BME280;36071;48.140;11.516;2023-09-07T22:52:04;95800.0;;;21.6;52.1
50166;BME280;36071;48.140;11.516;2023-09-07T22:57:02;95810.0;;;21.4;53.1
50166;BME280;36071;48.140;11.516;2023-09-07T23:02:03;95800.0;;;21.4;53.4
50166;BME280;36071;48.140;11.516;2023-09-07T23:07:03;95800.0;;;21.2;54.4
50166;BME280;36071;48.140;11.516;2023-09-07T23:12:03;95800.0;;;21.0;55.2
50166;BME280;36071;48.140;11.516;2023-09-07T23:17:03;95810.0;;;20.9;55.9
50166;BME280;36071;48.140;11.516;2023-09-07T23:22:06;95800.0;;;20.8;56.2
50166;BME280;36071;48.140;11.516;2023-09-07T23:27:03;95800.0;;;20.8;56.4
50166;BME280;36071;48.140;11.516;2023-09-07T23:32:02;95800.0;;;20.8;56.9
50166;BME280;36071;48.140;11.516;2023-09-07T23:37:02;95790.0;;;20.7;57.0
50166;BME280;36071;48.140;11.516;2023-09-07T23:42:02;95800.0;;;20.6;57.4
50166;BME280;36071;48.140;11.516;2023-09-07T23:47:02;95800.0;;;20.5;57.8
50166;BME280;36071;48.140;11.516;2023-09-07T23:52:03;95790.0;;;20.4;58.1
50166;BME280;36071;48.140;11.516;2023-09-07T23:57:02;95810.0;;;20.2;58.5
